Time;durP1;ratioP1;P1;durP2;ratioP2;P2;SDS_P1;SDS_P2;PMS_P1;PMS_P2;Temp;Humidity;BMP_temperature;BMP_pressure;BME280_temperature;BME280_humidity;BME280_pressure;Samples;Min_cycle;Max_cycle;Signal;HPM_P1;HPM_P2
2022/04/02 00:02:01;;;;;;;2.25;1.60;;;6.70;64.40;;;;;;5016425;28;20056;-78
2022/04/02 00:04:27;;;;;;;1.90;1.48;;;6.70;64.40;;;;;;5001490;28;20481;-77
2022/04/02 00:06:54;;;;;;;1.98;1.70;;;6.70;64.40;;;;;;5002573;28;20124;-78
2022/04/02 00:09:21;;;;;;;2.10;1.52;;;6.70;64.40;;;;;;4978258;28;20037;-78
2022/04/02 00:11:47;;;;;;;1.52;1.40;;;6.70;64.40;;;;;;5016875;28;20025;-77
2022/04/02 00:14:13;;;;;;;2.42;1.60;;;6.60;64.40;;;;;;5009188;28;20096;-77
2022/04/02 00:16:40;;;;;;;2.05;1.55;;;6.70;64.50;;;;;;5015718;28;20528;-77
2022/04/02 00:19:06;;;;;;;2.15;1.40;;;6.70;65.10;;;;;;4987665;28;20091;-80
2022/04/02 00:21:32;;;;;;;1.90;1.42;;;6.70;64.50;;;;;;5001665;28;20030;-78
2022/04/02 00:23:57;;;;;;;2.25;1.60;;;6.60;64.40;;;;;;5011266;28;20477;-78
2022/04/02 00:26:24;;;;;;;1.55;1.30;;;6.60;64.50;;;;;;5015829;28;20037;-78
2022/04/02 00:28:50;;;;;;;2.15;1.80;;;6.60;64.50;;;;;;4981387;28;20037;-76
2022/04/02 00:31:17;;;;;;;2.33;1.70;;;6.60;64.50;;;;;;5013252;28;20033;-77
2022/04/02 00:33:46;;;;;;;1.50;1.40;;;6.60;64.50;;;;;;5035479;28;20020;-78
2022/04/02 00:36:14;;;;;;;1.75;1.50;;;6.60;64.60;;;;;;5034239;28;20076;-77
2022/04/02 00:38:40;;;;;;;2.25;1.33;;;6.60;64.50;;;;;;5018414;28;20363;-77
2022/04/02 00:41:07;;;;;;;1.48;1.38;;;6.60;64.50;;;;;;5002419;28;20033;-78
2022/04/02 00:43:35;;;;;;;2.25;1.73;;;6.60;64.60;;;;;;5016874;28;20074;-77
2022/04/02 00:46:05;;;;;;;2.20;1.70;;;6.60;64.60;;;;;;5002394;28;20026;-78
2022/04/02 00:48:31;;;;;;;1.88;1.42;;;6.60;64.60;;;;;;5010870;28;20029;-77
2022/04/02 00:51:00;;;;;;;3.20;1.70;;;6.50;64.50;;;;;;5016931;28;20028;-78
2022/04/02 00:53:31;;;;;;;1.95;1.52;;;6.50;64.50;;;;;;5000221;28;20021;-77
2022/04/02 00:55:58;;;;;;;1.75;1.60;;;6.60;64.60;;;;;;4996882;28;20017;-77
2022/04/02 00:58:24;;;;;;;2.10;1.55;;;6.50;64.60;;;;;;5017634;28;20072;-77
2022/04/02 01:00:50;;;;;;;1.50;1.40;;;6.50;64.50;;;;;;5012385;28;20032;-79
2022/04/02 01:03:19;;;;;;;2.25;1.70;;;6.50;64.50;;;;;;4977599;28;20050;-77
2022/04/02 01:05:49;;;;;;;2.00;1.50;;;6.50;64.50;;;;;;4982281;28;20394;-78
2022/04/02 01:08:17;;;;;;;2.05;1.60;;;6.50;64.50;;;;;;4974604;28;20291;-77
2022/04/02 01:10:45;;;;;;;2.35;1.75;;;6.50;64.50;;;;;;4985954;28;20048;-77
2022/04/02 01:13:14;;;;;;;1.60;1.50;;;6.50;64.50;;;;;;4966956;28;20109;-78
2022/04/02 01:15:39;;;;;;;1.70;1.60;;;6.50;64.50;;;;;;4994829;28;20138;-77
2022/04/02 01:18:09;;;;;;;2.08;1.58;;;6.50;64.50;;;;;;4974165;28;20089;-78
2022/04/02 01:20:37;;;;;;;1.95;1.75;;;6.50;64.50;;;;;;4973197;28;20064;-78
2022/04/02 01:23:03;;;;;;;2.25;1.67;;;6.50;64.50;;;;;;4962202;28;20081;-77
2022/04/02 01:25:36;;;;;;;2.55;1.70;;;6.40;64.50;;;;;;4990603;28;20057;-77
2022/04/02 01:28:07;;;;;;;1.85;1.50;;;6.40;64.50;;;;;;4989640;28;20502;-77
2022/04/02 01:30:34;;;;;;;2.38;1.50;;;6.40;64.50;;;;;;4962667;28;20045;-78
2022/04/02 01:33:00;;;;;;;2.13;1.60;;;6.40;64.50;;;;;;4982226;28;20399;-77
2022/04/02 01:35:28;;;;;;;1.85;1.60;;;6.40;64.50;;;;;;4955503;28;20061;-77
2022/04/02 01:38:07;;;;;;;1.88;1.50;;;6.40;64.50;;;;;;4979557;28;20113;-77
2022/04/02 01:40:33;;;;;;;1.38;1.30;;;6.40;64.50;;;;;;4990917;28;20596;-78
2022/04/02 01:43:00;;;;;;;1.92;1.70;;;6.40;64.50;;;;;;4957983;28;20026;-78
2022/04/02 01:45:26;;;;;;;1.67;1.55;;;6.40;64.50;;;;;;4997022;28;20105;-77
2022/04/02 01:47:56;;;;;;;1.50;1.40;;;6.40;64.50;;;;;;4962983;28;20030;-77
2022/04/02 01:50:35;;;;;;;1.67;1.40;;;6.40;64.50;;;;;;4983547;28;20530;-77
2022/04/02 01:53:01;;;;;;;2.17;1.55;;;6.40;64.50;;;;;;4976907;28;20772;-77
2022/04/02 01:55:27;;;;;;;1.77;1.52;;;6.40;64.60;;;;;;4998225;28;20055;-77
2022/04/02 01:57:59;;;;;;;1.70;1.50;;;6.40;65.20;;;;;;4992706;28;20041;-77
2022/04/02 02:00:32;;;;;;;1.85;1.50;;;6.30;64.50;;;;;;4973736;28;20126;-78
2022/04/02 02:02:58;;;;;;;1.95;1.60;;;6.30;64.50;;;;;;4986193;28;20138;-77
2022/04/02 02:05:26;;;;;;;2.00;1.48;;;6.30;64.60;;;;;;4969707;28;20104;-77
2022/04/02 02:07:53;;;;;;;1.63;1.52;;;6.30;64.60;;;;;;4998510;28;20029;-76
2022/04/02 02:10:35;;;;;;;2.20;1.55;;;6.30;64.60;;;;;;5008438;28;20065;-77
2022/04/02 02:13:05;;;;;;;2.20;1.70;;;6.30;64.60;;;;;;5005099;28;20045;-77
2022/04/02 02:15:49;;;;;;;2.20;1.55;;;6.30;64.60;;;;;;4996659;28;20058;-76
2022/04/02 02:18:16;;;;;;;1.83;1.73;;;6.30;64.60;;;;;;4999342;28;20123;-77
2022/04/02 02:20:43;;;;;;;1.40;1.30;;;6.30;64.60;;;;;;5015326;28;20025;-76
2022/04/02 02:23:09;;;;;;;1.60;1.42;;;6.20;64.60;;;;;;5010284;28;20609;-79
2022/04/02 02:25:35;;;;;;;2.08;1.60;;;6.30;64.60;;;;;;5007578;28;20061;-78
2022/04/02 02:28:02;;;;;;;1.95;1.48;;;6.30;64.60;;;;;;4987078;28;20041;-77
2022/04/02 02:30:28;;;;;;;1.90;1.60;;;6.30;64.60;;;;;;4994845;28;20017;-78
2022/04/02 02:35:49;;;;;;;2.13;1.58;;;6.30;64.60;;;;;;5012536;28;20046;-78
2022/04/02 02:38:18;;;;;;;1.60;1.40;;;6.20;64.60;;;;;;4980341;28;20423;-77
2022/04/02 02:40:52;;;;;;;1.63;1.48;;;6.20;64.60;;;;;;4994983;28;20057;-78
2022/04/02 02:43:24;;;;;;;1.73;1.40;;;6.20;65.30;;;;;;4995375;28;20036;-77
2022/04/02 02:45:52;;;;;;;1.90;1.50;;;6.20;64.60;;;;;;4995367;28;20084;-79
2022/04/02 02:48:18;;;;;;;1.50;1.38;;;6.20;64.70;;;;;;5001082;28;20383;-77
2022/04/02 02:50:48;;;;;;;2.25;1.67;;;6.20;64.70;;;;;;4992038;28;20424;-77
2022/04/02 02:53:16;;;;;;;1.63;1.52;;;6.20;64.70;;;;;;4992380;28;20034;-77
2022/04/02 02:55:44;;;;;;;1.88;1.55;;;6.20;64.70;;;;;;4992314;28;20406;-77
2022/04/02 02:58:10;;;;;;;2.35;1.85;;;6.20;64.70;;;;;;4966581;28;20089;-77
2022/04/02 03:00:37;;;;;;;2.03;1.65;;;6.20;64.80;;;;;;5006498;28;20081;-77
2022/04/02 03:03:07;;;;;;;1.65;1.42;;;6.20;64.80;;;;;;4978926;28;20046;-77
2022/04/02 03:05:33;;;;;;;2.40;1.70;;;6.20;64.80;;;;;;4953760;28;20125;-76
2022/04/02 03:08:04;;;;;;;1.80;1.58;;;6.20;64.70;;;;;;4974665;28;20035;-76
2022/04/02 03:10:50;;;;;;;1.35;1.25;;;6.20;64.80;;;;;;4984487;28;20129;-76
2022/04/02 03:13:22;;;;;;;1.67;1.40;;;6.10;64.70;;;;;;4972660;28;20166;-76
2022/04/02 03:15:51;;;;;;;1.65;1.50;;;6.20;64.80;;;;;;4970927;28;20089;-77
2022/04/02 03:18:17;;;;;;;2.30;1.67;;;6.10;64.80;;;;;;4969855;28;20046;-76
2022/04/02 03:20:46;;;;;;;1.77;1.50;;;6.10;64.70;;;;;;4997699;28;20034;-76
2022/04/02 03:23:18;;;;;;;1.42;1.33;;;6.10;64.80;;;;;;4974855;28;20023;-76
2022/04/02 03:25:44;;;;;;;1.75;1.50;;;6.10;64.70;;;;;;4985664;28;20072;-75
2022/04/02 03:28:12;;;;;;;1.83;1.60;;;6.10;64.70;;;;;;4973571;28;20525;-76
2022/04/02 03:30:38;;;;;;;1.67;1.50;;;6.10;64.70;;;;;;4990991;28;20030;-76
2022/04/02 03:33:04;;;;;;;1.58;1.45;;;6.10;64.70;;;;;;4976385;28;20591;-76
2022/04/02 03:35:30;;;;;;;1.67;1.50;;;6.10;64.70;;;;;;4987300;28;20026;-77
2022/04/02 03:37:57;;;;;;;1.48;1.38;;;6.10;64.70;;;;;;4976489;28;20080;-77
2022/04/02 03:40:26;;;;;;;1.77;1.48;;;6.10;64.70;;;;;;4991648;28;20266;-77
2022/04/02 03:42:53;;;;;;;2.67;1.65;;;6.00;64.60;;;;;;4991419;28;20030;-77
2022/04/02 03:45:25;;;;;;;1.40;1.30;;;6.10;64.80;;;;;;4974648;28;20125;-76
2022/04/02 03:47:54;;;;;;;2.22;1.70;;;6.00;64.70;;;;;;4984790;28;20038;-76
2022/04/02 03:50:20;;;;;;;1.90;1.60;;;6.00;64.70;;;;;;4976653;28;20035;-77
2022/04/02 03:52:58;;;;;;;1.95;1.35;;;6.00;64.70;;;;;;4989147;28;20030;-78
2022/04/02 03:55:37;;;;;;;2.03;1.60;;;6.00;64.70;;;;;;4974374;28;20030;-77
2022/04/02 03:58:12;;;;;;;1.83;1.55;;;6.00;64.70;;;;;;4975033;28;20510;-77
2022/04/02 04:00:39;;;;;;;2.25;1.65;;;6.00;64.70;;;;;;4988009;28;20037;-79
2022/04/02 04:03:10;;;;;;;2.35;1.65;;;6.00;64.80;;;;;;5001443;28;20501;-77
2022/04/02 04:05:42;;;;;;;1.60;1.50;;;6.00;64.80;;;;;;5011635;28;20084;-77
2022/04/02 04:08:09;;;;;;;1.88;1.40;;;5.90;64.70;;;;;;5008992;28;20036;-76
2022/04/02 04:10:35;;;;;;;1.75;1.40;;;6.00;64.80;;;;;;4988903;28;20033;-76
2022/04/02 04:13:01;;;;;;;2.75;1.70;;;5.90;64.80;;;;;;4995698;28;20029;-77
2022/04/02 04:15:30;;;;;;;2.28;1.73;;;5.90;64.80;;;;;;4978542;28;20054;-77
2022/04/02 04:18:00;;;;;;;1.65;1.50;;;5.90;64.80;;;;;;4980654;28;20137;-75
2022/04/02 04:20:27;;;;;;;1.40;1.30;;;5.90;64.80;;;;;;4978966;28;20034;-77
2022/04/02 04:22:53;;;;;;;1.67;1.33;;;5.90;64.80;;;;;;4988861;28;20049;-76
2022/04/02 04:25:22;;;;;;;2.22;1.60;;;5.90;64.80;;;;;;4992680;28;20058;-76
2022/04/02 04:27:50;;;;;;;1.50;1.40;;;5.90;64.80;;;;;;5020109;28;20033;-77
2022/04/02 04:30:16;;;;;;;1.90;1.40;;;5.90;64.80;;;;;;4997125;28;20435;-77
2022/04/02 04:32:43;;;;;;;1.98;1.70;;;5.90;64.80;;;;;;5015534;28;20096;-79
2022/04/02 04:35:09;;;;;;;1.88;1.55;;;5.90;64.80;;;;;;5015511;28;20034;-77
2022/04/02 04:37:37;;;;;;;1.95;1.60;;;5.90;65.50;;;;;;5010260;28;20032;-78
2022/04/02 04:40:08;;;;;;;1.63;1.42;;;5.90;64.80;;;;;;4993155;28;20128;-78
2022/04/02 04:42:36;;;;;;;1.50;1.35;;;5.90;64.80;;;;;;5012069;28;20122;-77
2022/04/02 04:45:03;;;;;;;1.50;1.40;;;5.90;64.80;;;;;;5016255;28;20462;-77
2022/04/02 04:47:30;;;;;;;1.80;1.50;;;5.90;64.80;;;;;;5000203;28;20494;-78
2022/04/02 04:49:56;;;;;;;2.22;1.52;;;5.90;64.80;;;;;;4975525;28;20455;-77
2022/04/02 04:52:22;;;;;;;2.13;1.67;;;5.80;64.80;;;;;;5009440;28;20121;-77
2022/04/02 04:54:48;;;;;;;1.50;1.40;;;5.80;64.80;;;;;;4996845;28;20056;-78
2022/04/02 04:57:17;;;;;;;1.63;1.52;;;5.80;64.80;;;;;;4998492;28;20038;-77
2022/04/02 04:59:50;;;;;;;1.70;1.40;;;5.80;64.80;;;;;;4989144;28;20026;-77
2022/04/02 05:02:17;;;;;;;2.50;1.58;;;5.80;64.80;;;;;;4981774;28;20057;-77
2022/04/02 05:04:44;;;;;;;1.58;1.42;;;5.80;64.80;;;;;;4991998;28;20043;-77
2022/04/02 05:07:12;;;;;;;1.42;1.33;;;5.80;64.80;;;;;;4961482;28;20678;-77
2022/04/02 05:09:40;;;;;;;1.75;1.55;;;5.80;64.90;;;;;;4991369;28;20029;-77
2022/04/02 05:12:06;;;;;;;1.58;1.48;;;5.80;64.90;;;;;;4951567;28;20085;-77
2022/04/02 05:14:35;;;;;;;2.08;1.60;;;5.80;64.90;;;;;;4975761;28;20380;-77
2022/04/02 05:17:03;;;;;;;1.40;1.30;;;5.80;64.90;;;;;;4975000;28;20033;-79
2022/04/02 05:19:32;;;;;;;2.00;1.60;;;5.80;65.00;;;;;;4977709;28;20034;-77
2022/04/02 05:22:01;;;;;;;1.50;1.40;;;5.80;65.00;;;;;;4977948;28;20050;-77
2022/04/02 05:24:28;;;;;;;1.63;1.50;;;5.70;64.90;;;;;;4963665;28;20022;-77
2022/04/02 05:26:55;;;;;;;1.80;1.55;;;5.70;64.90;;;;;;4988331;28;20068;-78
2022/04/02 05:29:22;;;;;;;2.05;1.67;;;5.70;64.90;;;;;;4968573;28;20025;-77
2022/04/02 05:31:48;;;;;;;2.03;1.55;;;5.70;64.90;;;;;;4978089;28;20133;-77
2022/04/02 05:34:14;;;;;;;1.50;1.40;;;5.80;65.00;;;;;;4972007;28;20026;-78
2022/04/02 05:36:41;;;;;;;3.08;1.48;;;5.70;65.00;;;;;;4988576;28;20041;-78
2022/04/02 05:39:07;;;;;;;1.70;1.60;;;5.70;65.00;;;;;;4968194;28;20030;-78
2022/04/02 05:41:33;;;;;;;1.73;1.60;;;5.70;65.00;;;;;;4990920;28;20027;-77
2022/04/02 05:43:59;;;;;;;2.25;1.50;;;5.70;65.00;;;;;;4984660;28;20018;-77
2022/04/02 05:46:25;;;;;;;1.65;1.50;;;5.70;65.00;;;;;;4975127;28;20026;-77
2022/04/02 05:48:51;;;;;;;2.17;1.60;;;5.70;65.00;;;;;;4971326;28;20731;-77
2022/04/02 05:51:18;;;;;;;1.60;1.50;;;5.70;65.00;;;;;;4983411;28;20089;-77
2022/04/02 05:53:44;;;;;;;2.50;1.42;;;5.70;65.00;;;;;;4973254;28;20047;-78
2022/04/02 05:56:09;;;;;;;2.10;1.60;;;5.70;65.00;;;;;;4986390;28;20085;-77
2022/04/02 05:58:37;;;;;;;2.10;1.60;;;5.70;65.00;;;;;;4987600;28;20030;-78
2022/04/02 06:01:03;;;;;;;2.00;1.60;;;5.70;65.10;;;;;;4979874;28;20088;-78
2022/04/02 06:03:29;;;;;;;1.83;1.60;;;5.70;65.10;;;;;;4983301;28;20561;-79
2022/04/02 06:05:55;;;;;;;1.95;1.48;;;5.70;65.10;;;;;;4999422;28;20026;-78
2022/04/02 06:08:21;;;;;;;1.50;1.40;;;5.70;65.10;;;;;;4992883;28;20112;-78
2022/04/02 06:10:47;;;;;;;2.30;1.60;;;5.70;65.10;;;;;;5014698;28;20045;-79
2022/04/02 06:13:13;;;;;;;1.85;1.42;;;5.70;65.10;;;;;;5010985;28;20022;-79
2022/04/02 06:15:39;;;;;;;1.88;1.60;;;5.70;65.10;;;;;;4997350;28;20029;-79
2022/04/02 06:18:06;;;;;;;2.15;1.80;;;5.70;65.10;;;;;;5003444;28;20739;-80
2022/04/02 06:20:33;;;;;;;2.30;1.48;;;5.70;65.10;;;;;;5007618;28;20030;-79
2022/04/02 06:22:59;;;;;;;2.35;1.80;;;5.70;65.10;;;;;;5012299;28;20381;-77
2022/04/02 06:25:26;;;;;;;2.30;1.45;;;5.60;65.10;;;;;;4999159;28;20069;-78
2022/04/02 06:27:52;;;;;;;2.20;1.70;;;5.60;65.10;;;;;;4998571;28;20025;-78
2022/04/02 06:30:20;;;;;;;1.90;1.65;;;5.60;65.10;;;;;;4997568;28;20036;-78
2022/04/02 06:32:46;;;;;;;1.52;1.38;;;5.60;65.10;;;;;;5006066;28;20033;-77
2022/04/02 06:35:13;;;;;;;2.10;1.63;;;5.60;65.10;;;;;;4992328;28;20099;-78
2022/04/02 06:37:41;;;;;;;1.85;1.40;;;5.60;65.10;;;;;;5005462;28;20037;-78
2022/04/02 06:40:11;;;;;;;3.05;1.70;;;5.60;65.20;;;;;;4992742;28;20093;-78
2022/04/02 06:42:37;;;;;;;1.90;1.67;;;5.60;65.20;;;;;;4997334;28;20038;-77
2022/04/02 06:45:07;;;;;;;2.40;1.60;;;5.60;65.20;;;;;;5006192;28;20025;-78
2022/04/02 06:47:34;;;;;;;2.35;1.90;;;5.60;65.20;;;;;;4996627;28;20029;-79
2022/04/02 06:50:06;;;;;;;3.08;1.70;;;5.70;65.30;;;;;;5010534;28;20037;-78
2022/04/02 06:52:32;;;;;;;2.28;1.90;;;5.60;65.20;;;;;;5018139;28;20116;-78
2022/04/02 06:54:59;;;;;;;2.13;1.45;;;5.70;65.30;;;;;;5011902;28;20029;-77
2022/04/02 06:57:24;;;;;;;2.78;1.77;;;5.60;65.30;;;;;;5026387;28;20044;-78
2022/04/02 06:59:50;;;;;;;1.98;1.60;;;5.70;65.40;;;;;;5013627;28;20510;-78
2022/04/02 07:02:16;;;;;;;1.65;1.50;;;5.70;65.30;;;;;;4986790;28;20049;-78
2022/04/02 07:04:43;;;;;;;2.03;1.50;;;5.70;65.40;;;;;;5003004;28;20056;-78
2022/04/02 07:07:09;;;;;;;2.58;1.90;;;5.70;65.40;;;;;;5008832;28;20025;-78
2022/04/02 07:09:35;;;;;;;2.15;1.73;;;5.70;65.30;;;;;;4997626;28;20386;-79
2022/04/02 07:12:01;;;;;;;1.92;1.55;;;5.70;65.60;;;;;;5028536;28;20041;-79
2022/04/02 07:14:27;;;;;;;1.90;1.67;;;5.70;65.40;;;;;;4995133;28;20026;-79
2022/04/02 07:16:53;;;;;;;2.13;1.70;;;5.70;65.40;;;;;;5005885;28;20330;-78
2022/04/02 07:19:23;;;;;;;1.70;1.60;;;5.70;65.40;;;;;;4995245;28;20053;-78
2022/04/02 07:21:53;;;;;;;2.10;1.70;;;5.70;65.40;;;;;;4984650;28;20087;-79
2022/04/02 07:24:21;;;;;;;2.88;1.90;;;5.80;65.40;;;;;;5011122;28;20053;-77
2022/04/02 07:26:50;;;;;;;2.50;1.70;;;5.80;65.40;;;;;;4994983;28;20083;-78
2022/04/02 07:29:16;;;;;;;2.00;1.65;;;5.80;65.40;;;;;;5007279;28;20025;-78
2022/04/02 07:31:44;;;;;;;2.55;1.75;;;5.80;65.40;;;;;;4995518;28;20036;-78
2022/04/02 07:34:10;;;;;;;2.38;1.73;;;5.80;65.40;;;;;;4994931;28;20042;-78
2022/04/02 07:37:01;;;;;;;2.00;1.48;;;5.90;65.50;;;;;;5012758;28;20044;-77
2022/04/02 07:39:26;;;;;;;1.92;1.52;;;5.80;65.50;;;;;;5027969;28;20033;-77
2022/04/02 07:42:13;;;;;;;2.65;1.80;;;5.90;65.40;;;;;;5014075;28;20555;-78
2022/04/02 07:45:01;;;;;;;2.08;1.65;;;5.90;65.60;;;;;;5009539;28;20029;-76
2022/04/02 07:47:31;;;;;;;2.10;1.75;;;5.90;65.60;;;;;;5025614;28;20026;-78
2022/04/02 07:50:00;;;;;;;2.80;1.90;;;5.90;65.50;;;;;;4999089;28;20052;-77
2022/04/02 07:52:28;;;;;;;2.80;1.70;;;5.90;65.60;;;;;;5012866;28;20026;-77
2022/04/02 07:54:59;;;;;;;2.85;1.80;;;6.00;65.60;;;;;;5005951;28;20034;-80
2022/04/02 07:57:37;;;;;;;3.30;1.80;;;6.00;65.70;;;;;;5011477;28;20489;-77
2022/04/02 08:00:05;;;;;;;2.45;2.00;;;6.00;65.60;;;;;;5014655;28;20558;-78
2022/04/02 08:02:46;;;;;;;1.83;1.67;;;6.00;65.60;;;;;;5017451;28;20060;-78
2022/04/02 08:05:19;;;;;;;3.65;1.83;;;6.00;65.60;;;;;;5001833;28;20061;-77
2022/04/02 08:07:54;;;;;;;2.75;1.90;;;6.00;65.60;;;;;;5003993;28;20026;-76
2022/04/02 08:10:25;;;;;;;2.45;1.83;;;6.10;65.70;;;;;;5018263;28;20037;-77
2022/04/02 08:12:52;;;;;;;3.05;1.90;;;6.10;65.70;;;;;;4999585;28;20367;-75
2022/04/02 08:15:22;;;;;;;2.50;1.75;;;6.10;65.70;;;;;;5033551;28;20363;-77
2022/04/02 08:17:54;;;;;;;2.37;1.70;;;6.20;66.40;;;;;;5008299;28;20489;-77
2022/04/02 08:20:21;;;;;;;2.63;1.77;;;6.20;65.70;;;;;;5021275;28;20116;-76
2022/04/02 08:22:47;;;;;;;2.58;1.90;;;6.20;65.70;;;;;;4993212;28;20026;-76
2022/04/02 08:25:14;;;;;;;2.58;1.90;;;6.20;65.70;;;;;;5001374;28;20430;-76
2022/04/02 08:27:48;;;;;;;2.22;1.88;;;6.30;65.70;;;;;;5000707;28;20745;-77
2022/04/02 08:30:17;;;;;;;2.33;1.88;;;6.30;65.70;;;;;;5007334;28;20140;-76
2022/04/02 08:33:14;;;;;;;2.10;1.70;;;6.30;65.70;;;;;;5012021;28;20064;-77
2022/04/02 08:35:49;;;;;;;2.28;1.80;;;6.40;65.80;;;;;;5023125;28;20685;-77
2022/04/02 08:38:30;;;;;;;3.00;1.90;;;6.40;65.70;;;;;;5014035;28;20022;-77
2022/04/02 08:41:22;;;;;;;2.40;1.80;;;6.40;65.80;;;;;;5024596;28;20026;-77
2022/04/02 08:44:07;;;;;;;2.03;1.83;;;6.40;65.70;;;;;;5031765;28;20053;-77
2022/04/02 08:46:50;;;;;;;2.90;2.00;;;6.50;65.80;;;;;;5007727;28;20104;-77
2022/04/02 08:49:36;;;;;;;2.13;1.92;;;6.50;65.70;;;;;;4992191;28;20029;-79
2022/04/02 08:52:13;;;;;;;2.60;1.90;;;6.50;65.80;;;;;;4991433;28;20052;-78
2022/04/02 08:55:08;;;;;;;2.08;1.88;;;6.60;65.80;;;;;;5010398;28;20498;-78
2022/04/02 08:58:07;;;;;;;3.10;1.63;;;6.60;65.80;;;;;;5015353;28;20026;-79
2022/04/02 09:00:39;;;;;;;2.83;1.80;;;6.60;65.80;;;;;;5005010;28;20116;-79
2022/04/02 09:03:29;;;;;;;2.88;2.22;;;6.70;65.70;;;;;;4982945;28;20129;-79
2022/04/02 09:06:28;;;;;;;2.70;1.70;;;6.70;65.80;;;;;;4976443;28;20053;-80
2022/04/02 09:09:38;;;;;;;2.80;2.20;;;6.80;65.80;;;;;;4992726;28;20073;-81
2022/04/02 09:12:22;;;;;;;2.78;1.88;;;6.80;65.80;;;;;;4973496;28;20483;-79
2022/04/02 09:15:10;;;;;;;2.53;2.00;;;6.80;65.70;;;;;;4983857;28;20023;-79
2022/04/02 09:17:48;;;;;;;2.55;2.08;;;6.90;65.70;;;;;;4991859;28;20026;-79
2022/04/02 09:20:34;;;;;;;3.28;2.20;;;7.00;65.70;;;;;;4989620;28;20541;-82
2022/04/02 09:23:25;;;;;;;2.95;1.90;;;7.00;65.60;;;;;;4969416;28;20030;-77
2022/04/02 09:26:14;;;;;;;2.03;1.60;;;7.10;65.60;;;;;;4957841;28;20377;-77
2022/04/02 09:29:11;;;;;;;3.17;2.30;;;7.20;65.60;;;;;;4973161;28;20117;-76
2022/04/02 09:32:14;;;;;;;2.50;1.92;;;7.20;65.60;;;;;;4974975;28;20034;-77
2022/04/02 09:35:17;;;;;;;2.78;2.10;;;7.30;65.40;;;;;;4994649;28;20030;-77
2022/04/02 09:38:35;;;;;;;2.03;1.70;;;7.30;65.30;;;;;;4990719;28;20166;-76
2022/04/02 09:41:28;;;;;;;2.55;1.92;;;7.40;65.30;;;;;;4931332;29;20040;-77
2022/04/02 09:44:12;;;;;;;2.92;2.10;;;7.40;65.10;;;;;;4906757;29;20056;-77
2022/04/02 09:47:09;;;;;;;2.70;1.98;;;7.50;65.10;;;;;;4993534;28;20042;-77
2022/04/02 09:49:42;;;;;;;2.42;1.80;;;7.50;65.10;;;;;;4968158;28;20038;-77
2022/04/02 09:52:08;;;;;;;2.63;2.03;;;7.60;65.10;;;;;;4975858;28;20034;-78
2022/04/02 09:54:39;;;;;;;3.17;2.20;;;7.60;65.10;;;;;;4973958;28;20475;-76
2022/04/02 09:57:31;;;;;;;3.20;2.13;;;7.60;65.10;;;;;;4990593;28;20054;-77
2022/04/02 10:00:07;;;;;;;2.38;2.10;;;7.70;65.10;;;;;;4987758;28;20097;-79
2022/04/02 10:02:57;;;;;;;2.90;2.00;;;7.70;65.00;;;;;;5002931;28;20101;-77
2022/04/02 10:05:31;;;;;;;3.40;2.13;;;7.80;65.10;;;;;;4996430;28;20091;-78
2022/04/02 10:08:05;;;;;;;3.22;2.25;;;7.80;65.00;;;;;;5012616;28;20525;-78
2022/04/02 10:10:31;;;;;;;3.70;2.30;;;7.80;65.00;;;;;;4996495;28;20545;-76
2022/04/02 10:12:57;;;;;;;3.25;2.05;;;7.90;65.00;;;;;;4996846;28;20030;-78
2022/04/02 10:15:24;;;;;;;2.35;2.00;;;7.90;65.00;;;;;;4997125;28;20037;-77
2022/04/02 10:18:03;;;;;;;3.13;2.15;;;7.90;65.00;;;;;;5067376;28;20395;-77
2022/04/02 10:20:29;;;;;;;3.08;1.92;;;8.00;65.00;;;;;;5056304;28;20597;-77
2022/04/02 10:23:14;;;;;;;2.08;1.80;;;8.00;64.90;;;;;;5059533;28;20071;-76
2022/04/02 10:25:57;;;;;;;2.47;1.90;;;8.10;64.90;;;;;;5039423;28;20067;-78
2022/04/02 10:28:30;;;;;;;2.72;1.83;;;8.10;64.80;;;;;;5054258;28;20510;-78
2022/04/02 10:30:57;;;;;;;2.08;1.55;;;8.10;64.80;;;;;;5064764;28;20147;-77
2022/04/02 10:33:34;;;;;;;2.35;1.88;;;8.20;64.80;;;;;;5044614;28;20025;-77
2022/04/02 10:36:03;;;;;;;2.10;1.70;;;8.20;64.80;;;;;;5053716;28;20029;-77
2022/04/02 10:38:36;;;;;;;1.63;1.52;;;8.20;64.80;;;;;;5054151;28;20033;-78
2022/04/02 10:41:09;;;;;;;2.63;1.73;;;8.20;64.80;;;;;;5056307;28;20119;-77
2022/04/02 10:43:44;;;;;;;2.20;1.80;;;8.30;64.70;;;;;;5048303;28;20044;-78
2022/04/02 10:46:09;;;;;;;2.75;1.90;;;8.30;64.60;;;;;;5039999;28;20116;-77
2022/04/02 10:48:47;;;;;;;1.83;1.52;;;8.30;64.60;;;;;;5051424;28;20485;-78
2022/04/02 10:51:13;;;;;;;2.53;1.92;;;8.30;64.60;;;;;;5037455;28;20100;-77
2022/04/02 10:53:43;;;;;;;2.83;1.70;;;8.40;64.60;;;;;;5045171;28;20036;-77
2022/04/02 10:56:15;;;;;;;2.65;1.83;;;8.40;64.60;;;;;;5054873;28;20064;-77
2022/04/02 10:58:48;;;;;;;2.53;1.75;;;8.40;64.50;;;;;;5065714;28;20025;-77
2022/04/02 11:01:18;;;;;;;1.70;1.50;;;8.50;64.50;;;;;;5047695;28;20759;-77
2022/04/02 11:03:53;;;;;;;3.35;2.10;;;8.50;64.50;;;;;;5045121;28;20136;-77
2022/04/02 11:06:48;;;;;;;2.60;1.80;;;8.50;64.50;;;;;;5037976;28;20033;-77
2022/04/02 11:09:29;;;;;;;1.75;1.60;;;8.60;64.50;;;;;;5049777;28;20493;-79
2022/04/02 11:12:18;;;;;;;1.60;1.50;;;8.60;64.50;;;;;;5056911;28;20029;-78
2022/04/02 11:14:52;;;;;;;1.52;1.40;;;8.60;64.50;;;;;;5055838;28;20116;-78
2022/04/02 11:17:33;;;;;;;2.47;1.75;;;8.60;64.40;;;;;;5052925;28;20477;-76
2022/04/02 11:20:15;;;;;;;1.80;1.40;;;8.70;64.40;;;;;;5046694;28;20025;-77
2022/04/02 11:22:54;;;;;;;1.88;1.42;;;8.70;64.30;;;;;;5055233;28;20032;-77
2022/04/02 11:25:24;;;;;;;2.83;1.80;;;8.70;64.30;;;;;;5050447;28;20028;-78
2022/04/02 11:27:55;;;;;;;2.38;1.60;;;8.80;64.30;;;;;;5050411;28;20172;-78
2022/04/02 11:30:21;;;;;;;2.80;1.90;;;8.90;64.30;;;;;;5042879;28;20462;-77
2022/04/02 11:32:50;;;;;;;1.90;1.67;;;8.90;64.20;;;;;;5034356;28;20025;-78
2022/04/02 11:35:22;;;;;;;1.70;1.42;;;8.90;64.20;;;;;;5026236;28;20033;-77
2022/04/02 11:38:07;;;;;;;2.22;1.65;;;9.00;64.10;;;;;;5041437;28;20064;-77
2022/04/02 11:40:38;;;;;;;1.60;1.48;;;9.10;64.10;;;;;;5037900;28;20029;-77
2022/04/02 11:43:04;;;;;;;1.63;1.52;;;9.10;64.00;;;;;;5039846;28;20031;-78
2022/04/02 11:45:31;;;;;;;1.83;1.60;;;9.20;64.00;;;;;;5039555;28;20025;-77
2022/04/02 11:48:08;;;;;;;2.03;1.40;;;9.20;64.00;;;;;;5039314;28;20533;-78
2022/04/02 11:50:37;;;;;;;1.75;1.45;;;9.20;64.00;;;;;;5040620;28;20555;-77
2022/04/02 11:53:03;;;;;;;2.03;1.50;;;9.30;64.00;;;;;;5039199;28;20021;-78
2022/04/02 11:55:34;;;;;;;1.80;1.42;;;9.30;63.90;;;;;;5014014;28;20559;-78
2022/04/02 11:58:00;;;;;;;1.58;1.30;;;9.30;63.90;;;;;;5039020;28;20128;-77
2022/04/02 12:00:30;;;;;;;1.83;1.60;;;9.40;63.90;;;;;;5040575;28;20506;-77
2022/04/02 12:02:57;;;;;;;1.77;1.38;;;9.40;63.80;;;;;;5014377;28;20056;-78
2022/04/02 12:05:34;;;;;;;1.85;1.30;;;9.40;63.70;;;;;;5039956;28;20124;-77
2022/04/02 12:08:02;;;;;;;1.35;1.25;;;9.50;63.80;;;;;;5035359;28;20337;-78
2022/04/02 12:10:28;;;;;;;1.45;1.30;;;9.50;63.60;;;;;;5040377;28;20127;-77
2022/04/02 12:12:56;;;;;;;1.55;1.45;;;9.60;63.60;;;;;;5026031;28;20489;-77
2022/04/02 12:15:22;;;;;;;1.40;1.30;;;9.60;63.50;;;;;;5033278;28;20036;-78
2022/04/02 12:17:52;;;;;;;1.73;1.50;;;9.70;63.50;;;;;;5017014;28;20076;-78
2022/04/02 12:20:26;;;;;;;1.40;1.30;;;9.70;63.50;;;;;;5020133;28;20453;-78
2022/04/02 12:23:11;;;;;;;1.65;1.40;;;9.70;63.50;;;;;;5039386;28;20049;-79
2022/04/02 12:25:58;;;;;;;1.88;1.35;;;9.80;63.50;;;;;;5038637;28;20033;-77
2022/04/02 12:28:25;;;;;;;3.20;1.38;;;9.80;63.40;;;;;;5021226;28;20124;-78
2022/04/02 12:30:52;;;;;;;1.40;1.30;;;9.80;63.40;;;;;;5039079;28;20519;-78
2022/04/02 12:33:22;;;;;;;1.75;1.30;;;9.90;63.40;;;;;;5030130;28;20103;-78
2022/04/02 12:35:58;;;;;;;1.65;1.40;;;9.90;63.30;;;;;;5039714;28;20481;-78
2022/04/02 12:38:32;;;;;;;1.63;1.33;;;9.90;63.30;;;;;;5038965;28;20283;-78
2022/04/02 12:40:59;;;;;;;1.65;1.40;;;10.00;63.30;;;;;;5030714;28;20371;-79
2022/04/02 12:43:37;;;;;;;2.08;1.42;;;10.00;63.20;;;;;;5018558;28;20506;-77
2022/04/02 12:46:03;;;;;;;1.83;1.40;;;10.00;63.20;;;;;;5027249;28;20041;-78
2022/04/02 12:48:49;;;;;;;2.10;1.50;;;10.00;63.20;;;;;;5035887;28;20036;-79
2022/04/02 12:51:17;;;;;;;1.60;1.50;;;10.10;63.20;;;;;;5012696;28;20137;-79
2022/04/02 12:53:45;;;;;;;2.13;1.50;;;10.10;63.10;;;;;;5027928;28;20021;-79
2022/04/02 12:56:19;;;;;;;1.40;1.17;;;10.10;63.10;;;;;;5039442;28;20044;-78
2022/04/02 12:58:48;;;;;;;1.63;1.50;;;10.20;63.10;;;;;;5045574;28;20029;-78
2022/04/02 13:01:33;;;;;;;1.67;1.58;;;10.20;63.10;;;;;;5030980;28;20025;-78
2022/04/02 13:04:03;;;;;;;2.40;1.60;;;10.20;63.10;;;;;;5039367;28;20030;-78
2022/04/02 13:06:39;;;;;;;2.65;1.58;;;10.20;63.00;;;;;;5023802;28;20037;-78
2022/04/02 13:09:16;;;;;;;1.60;1.30;;;10.20;62.90;;;;;;5041676;28;20033;-79
2022/04/02 13:11:58;;;;;;;1.45;1.35;;;10.20;62.90;;;;;;5035726;28;20033;-77
2022/04/02 13:14:27;;;;;;;2.33;1.50;;;10.20;62.90;;;;;;5019096;28;20454;-78
2022/04/02 13:17:07;;;;;;;2.05;1.30;;;10.30;62.80;;;;;;5019698;28;20056;-78
2022/04/02 13:22:47;;;;;;;1.60;1.30;;;10.30;62.90;;;;;;5037476;28;20551;-77
2022/04/02 13:25:18;;;;;;;2.03;1.45;;;10.30;62.80;;;;;;5038990;28;20108;-78